^^

..:: Metar reader and decoder ::..





LIED - Cagliari-Decimomannu(It-A, Italy
Dati ricevuti: Thu, 23-May-2024 20:55
Few Clouds
Few Clouds
 Vento da E
Vento: E 7 km/h
Temperatura: 21°C
P.to Rugiada: 15°C
Umidità: 69%
Barometro: 1016 hPa
Nuvole: Few Clouds
Visibilità: 10 km
Dettaglio nuvole: Few Clouds 1067 m
2024/05/23 18:55 LIED 231855Z 10004KT 9999 FEW035 21/15 Q1016
LIEE - Cagliari-Elmas(A, Italy
Dati ricevuti: Thu, 23-May-2024 20:50
Sereno
Sereno
 Vento da SSE
Vento: SSE 9 km/h
Temperatura: 21°C
P.to Rugiada: 15°C
Umidità: 69%
Barometro: 1017 hPa
Sommario: Sereno
Visibilità: superiore a 10 km
2024/05/23 18:50 LIEE 231850Z 15005KT CAVOK 21/15 Q1017
 
LIEO - Olbia-Costa Smeralda, Italy
Dati ricevuti: Thu, 23-May-2024 20:50
Sereno
Sereno
 Vento da Variabile
Vento: Variabile 2 km/h
Temperatura: 21°C
P.to Rugiada: 16°C
Umidità: 73%
Barometro: 1018 hPa
Sommario: Sereno
Visibilità: superiore a 10 km
2024/05/23 18:50 LIEO 231850Z VRB01KT CAVOK 21/16 Q1018
LIEA - Alghero, Italy
Dati ricevuti: Thu, 23-May-2024 20:50
Sereno
Sereno
 Vento da NNE
Vento: NNE 13 km/h
Temperatura: 19°C
P.to Rugiada: 14°C
Umidità: 73%
Barometro: 1017 hPa
Sommario: Sereno
Visibilità: superiore a 10 km
2024/05/23 18:50 LIEA 231850Z 03007KT CAVOK 19/14 Q1017
 
LICA - Catanzaro-Lamezia Terme, Italy
Dati ricevuti: Thu, 23-May-2024 20:50
Sereno
Sereno
 Vento da SSO
Vento: SSO 11 km/h
Temperatura: 19°C
P.to Rugiada: 15°C
Umidità: 78%
Barometro: 1018 hPa
Nuvole: Sereno
Visibilità: 10 km
2024/05/23 18:50 LICA 231850Z AUTO 21006KT 9999 NCD 19/15 Q1018
LIBQ - Cosenza-Monte Scuro, Italy
Dati ricevuti: Thu, 23-May-2024 20:55

 Vento da OSO
Vento: OSO 11 km/h
Temperatura: 11°C
P.to Rugiada: -1°C
Umidità: 44%
Barometro: 1022 hPa
2024/05/23 18:55 LIBQ 231855Z AUTO 24006KT 200V260 //// 11/M01 Q1022
 
LICR - Reggio Calabria, Italy
Dati ricevuti: Thu, 23-May-2024 20:50
Sereno
Sereno
 Vento da N
Vento: N 13 km/h
Temperatura: 21°C
P.to Rugiada: 10°C
Umidità: 50%
Barometro: 1018 hPa
Nuvole: Sereno
Visibilità: 10 km
2024/05/23 18:50 LICR 231850Z AUTO 36007KT 9999 NCD 21/10 Q1018
LIBV - Bari-Gioia Del Colle, Italy
Dati ricevuti: Thu, 23-May-2024 20:55
Sereno
Sereno
 Vento da S
Vento: S 6 km/h
Temperatura: 20°C
P.to Rugiada: 11°C
Umidità: 56%
Barometro: 1017 hPa
Sommario: Sereno
Visibilità: superiore a 10 km
2024/05/23 18:55 LIBV 231855Z 18003KT CAVOK 20/11 Q1017
 
LIBD - Bari-Palese Macchie, Italy
Dati ricevuti: Thu, 23-May-2024 20:50
Few Clouds
Few Clouds
 Vento da E
Vento: E 13 km/h
Temperatura: 21°C
P.to Rugiada: 15°C
Umidità: 69%
Barometro: 1016 hPa
Nuvole: Few Clouds
Visibilità: 10 km
Dettaglio nuvole: Few Clouds 914 m
2024/05/23 18:50 LIBD 231850Z 08007KT 9999 FEW030 21/15 Q1016
LIBR - Brindisi-Casale, Italy
Dati ricevuti: Thu, 23-May-2024 20:50
Sereno
Sereno
 Vento da E
Vento: E 6 km/h
Temperatura: 20°C
P.to Rugiada: 16°C
Umidità: 78%
Barometro: 1017 hPa
Sommario: Sereno
Visibilità: superiore a 10 km
2024/05/23 18:50 LIBR 231850Z 10003KT 070V130 CAVOK 20/16 Q1017
 
LIRT - Trevico, Italy
Dati ricevuti: Thu, 23-May-2024 20:55

 Vento da O
Vento: O 17 km/h
Temperatura: 12°C
P.to Rugiada: 7°C
Umidità: 72%
Barometro: 1020 hPa
2024/05/23 18:55 LIRT 231855Z AUTO 27009KT 250V310 //// 12/07 Q1020
LICB - Comiso, Italy
Dati ricevuti: Thu, 23-May-2024 20:50
Sereno
Sereno
 Vento da ONO
Vento: ONO 4 km/h
Temperatura: 21°C
P.to Rugiada: 8°C
Umidità: 43%
Barometro: 1018 hPa
Nuvole: Sereno
Visibilità: 10 km
2024/05/23 18:50 LICB 231850Z AUTO 30002KT 9999 NCD 21/08 Q1018
 
LICL - Gela, Italy
Dati ricevuti: Thu, 23-May-2024 20:55

 Vento da SSO
Vento: SSO 9 km/h
Temperatura: 21°C
P.to Rugiada: 11°C
Umidità: 53%
Barometro: 1017 hPa
2024/05/23 18:55 LICL 231855Z AUTO 21005KT 180V250 //// 21/11 Q1017
LIBN - Lecce (it-Afb), Italy
Dati ricevuti: Thu, 23-May-2024 20:55
Sereno
Sereno
 Vento da Variabile
Vento: Variabile 2 km/h
Temperatura: 20°C
P.to Rugiada: 10°C
Umidità: 53%
Barometro: 1017 hPa
Sommario: Sereno
Visibilità: superiore a 10 km
2024/05/23 18:55 LIBN 231855Z VRB01KT CAVOK 20/10 Q1017
 
LICJ - Palermo-Punta Raisi, Italy
Dati ricevuti: Thu, 23-May-2024 20:50
Sereno
Sereno
 Vento da O
Vento: O 13 km/h
Temperatura: 22°C
P.to Rugiada: 18°C
Umidità: 78%
Barometro: 1017 hPa
Sommario: Sereno
Visibilità: superiore a 10 km
2024/05/23 18:50 LICJ 231850Z 26007KT CAVOK 22/18 Q1017
LICZ - Catania-Sigonella (nas), Italy
Dati ricevuti: Thu, 23-May-2024 20:55
Sereno
Sereno
 Vento da E
Vento: E 13 km/h
Temperatura: 21°C
P.to Rugiada: 12°C
Umidità: 57%
Barometro: 1018 hPa
Sommario: Sereno
Visibilità: superiore a 10 km
2024/05/23 18:55 LICZ 231855Z 08007KT CAVOK 21/12 Q1018
 
LICC - Catania-Fontanarossa, Italy
Dati ricevuti: Thu, 23-May-2024 20:50
Sereno
Sereno
 Vento da ENE
Vento: ENE 11 km/h
Temperatura: 22°C
P.to Rugiada: 14°C
Umidità: 61%
Barometro: 1017 hPa
Sommario: Sereno
Visibilità: superiore a 10 km
2024/05/23 18:50 LICC 231850Z 06006KT CAVOK 22/14 Q1017
LICT - Trapani-Birgi (a, Italy
Dati ricevuti: Thu, 23-May-2024 20:55
Sereno
Sereno
 Vento da NNE
Vento: NNE 6 km/h
Temperatura: 23°C
P.to Rugiada: 17°C
Umidità: 69%
Barometro: 1017 hPa
Sommario: Sereno
Visibilità: superiore a 10 km
2024/05/23 18:55 LICT 231855Z 02003KT CAVOK 23/17 Q1017
 
LICD - Agrigento-Lampedusa, Italy
Dati ricevuti: Thu, 23-May-2024 20:50
Sereno
Sereno
 Vento da ENE
Vento: ENE 13 km/h
Temperatura: 21°C
P.to Rugiada: 18°C
Umidità: 83%
Barometro: 1017 hPa
Nuvole: Sereno
Visibilità: 10 km
2024/05/23 18:50 LICD 231850Z AUTO 07007KT 9999 NCD 21/18 Q1017
LICG - Pantelleria(It-A, Italy
Dati ricevuti: Thu, 23-May-2024 19:50
DATI Obsoleti
Sereno
Sereno
 Vento da NE
Vento: NE 9 km/h
Temperatura: 20°C
P.to Rugiada: 13°C
Umidità: 64%
Barometro: 1018 hPa
Sommario: Sereno
Visibilità: superiore a 10 km
2024/05/23 17:50 LICG 231750Z 04005KT CAVOK 20/13 Q1018






METEO PILLOLE
Temperatura più alta in Italia
Floridia - Siracusa
L' 11 agosto 2021 alle 13:14 si registrano ben 48,8°C.

Do NOT follow this link or you will be banned from the site!